Aviation Digital Data Service (ADDS)

Output produced by METARs form (2155 UTC 19 February 2018)
found at http://www.aviationweather.gov/adds/metars/
 
FEFF 192100Z 17006KT CAVOK 28/24 Q1009 NOSIG
TAF FEFF 191700Z 1918/2024 24004KT 9999 FEW013 FEW040CB 
     TEMPO 1919/1922 08015KT 3000 TSRA BKN010 FEW033CB 
     BECMG 2004/2006 VRB03KT 4000 BR SCT005